KARB/ARB METAR and TAF weather

Enter ICAO airport designator
Station Type Date Time Source
KARB METAR 2020/09/20 12:53 UTC NOAA

KARB 201253Z 05003KT 10SM CLR 08/07 A3048 RMK AO2 SLP327 T00830067


Station Type Date Time Source
KARB Decoded METAR 2020/09/20 12:53 UTC NOAA

ANN ARBOR MUNICIPAL AIRPORT, MI, United States (KARB) 42-13N 083-45W 251M
Sep 20, 2020 - 08:53 AM EDT / 2020.09.20 1253 UTC
Wind: from the NE (050 degrees) at 3 MPH (3 KT):0
Visibility: 10 mile(s):0
Sky conditions: clear
Temperature: 46.9 F (8.3 C)
Dew Point: 44.1 F (6.7 C)
Relative Humidity: 89%
Pressure (altimeter): 30.48 in. Hg (1032 hPa)
ob: KARB 201253Z 05003KT 10SM CLR 08/07 A3048 RMK AO2 SLP327 T00830067
cycle: 13

Station Type Date Time Source
KARB TAF UTC NOAA

Error!

Example: see airport list